Aviston, Illinois
Current Conditions -  °F | °C
As of 10:18 AM on Friday 19 Dec 2014 (Local Time) from KBLV Reporting Station
Overcast Overcast  
Wind Chill: -3°   Ceiling: 1100
Heat Index:   Visibility: 10mi
Dew Point: -1°   Wind: 5mph
Humidity: 93%   Direction: 110°ESE
Pressure: 30.34"   Gusts: NA
Location:  38.61°N, 89.61°W
Report Text: KBLV 191618Z AUTO 11004KT 10SM BKN011 OVC040 00/M01 A3034 RMK AO2 CIG 011V040 BKN V SCT
Loading
Personal Weather Stations






























Interactive Weather Map New forecast layout! Learn more

10-Day Weather Forecast

Advertisements
Track Severe Weather on mobile